createdAt,value
2022-08-03T00:04:33.925Z,101055.16
2022-08-03T00:09:35.745Z,101049.06
2022-08-03T00:14:32.707Z,101045.72
2022-08-03T00:19:29.538Z,101038.84
2022-08-03T00:24:26.767Z,101034.84
2022-08-03T00:29:23.378Z,101042.09
2022-08-03T00:34:22.472Z,101047.47
2022-08-03T00:39:34.042Z,101046.81
2022-08-03T00:44:32.079Z,101054.06
2022-08-03T00:49:28.914Z,101052.81
2022-08-03T00:54:25.638Z,101052.09
2022-08-03T00:59:23.108Z,101049.13
2022-08-03T01:04:19.743Z,101060.25
2022-08-03T01:09:19.710Z,101061.28
2022-08-03T01:14:20.778Z,101071.28
2022-08-03T01:19:29.276Z,101060.59
2022-08-03T01:24:32.724Z,101066.94
2022-08-03T01:29:50.283Z,101066.28
2022-08-03T01:34:48.542Z,101062.00
2022-08-03T01:39:45.244Z,101067.75
2022-08-03T01:44:43.871Z,101065.84
2022-08-03T01:49:44.001Z,101065.28
2022-08-03T01:54:43.181Z,101066.09
2022-08-03T01:59:40.109Z,101079.16
2022-08-03T02:04:39.988Z,101065.97
2022-08-03T02:09:38.807Z,101068.47
2022-08-03T02:14:35.753Z,101059.91
2022-08-03T02:19:35.781Z,101066.06
2022-08-03T02:24:32.604Z,101060.53
2022-08-03T02:29:39.103Z,101062.75
2022-08-03T02:34:37.654Z,101072.91
2022-08-03T02:39:35.584Z,101067.06
2022-08-03T02:44:33.503Z,101070.31
2022-08-03T02:49:40.953Z,101074.28
2022-08-03T02:54:49.084Z,101071.75
2022-08-03T02:59:47.000Z,101070.38
2022-08-03T03:05:52.906Z,101073.72
2022-08-03T03:10:01.634Z,101074.53
2022-08-03T03:14:59.048Z,101081.88
2022-08-03T03:19:56.573Z,101083.25
2022-08-03T03:24:54.489Z,101080.53
2022-08-03T03:29:51.579Z,101089.72
2022-08-03T03:34:49.303Z,101088.41
2022-08-03T03:39:47.846Z,101093.50
2022-08-03T03:44:44.555Z,101094.78
2022-08-03T03:49:42.293Z,101104.94
2022-08-03T03:54:40.699Z,101102.28
2022-08-03T03:59:37.804Z,101101.53
2022-08-03T04:04:52.684Z,101108.09
2022-08-03T04:10:14.559Z,101107.78
2022-08-03T04:15:12.880Z,101114.06
2022-08-03T04:20:10.830Z,101115.72
2022-08-03T04:25:10.476Z,101115.22
2022-08-03T04:30:08.749Z,101111.56
2022-08-03T04:35:06.404Z,101119.91
2022-08-03T04:40:05.936Z,101119.94
2022-08-03T04:45:05.796Z,101118.44
2022-08-03T04:50:03.498Z,101119.19
2022-08-03T04:55:00.480Z,101121.28
2022-08-03T05:00:02.539Z,101127.38
2022-08-03T05:05:00.759Z,101125.16
2022-08-03T05:10:01.823Z,101131.72
2022-08-03T05:15:00.166Z,101131.38
2022-08-03T05:19:56.736Z,101136.03
2022-08-03T05:24:54.070Z,101148.50
2022-08-03T05:29:53.795Z,101147.41
2022-08-03T05:34:50.395Z,101150.06
2022-08-03T05:39:47.110Z,101149.34
2022-08-03T05:44:44.496Z,101156.72
2022-08-03T05:49:41.402Z,101165.06
2022-08-03T05:54:55.834Z,101165.31
2022-08-03T05:59:57.922Z,101171.44
2022-08-03T06:04:55.462Z,101156.72
2022-08-03T06:10:33.952Z,101167.69
2022-08-03T06:15:11.448Z,101162.44
2022-08-03T06:20:09.008Z,101171.84
2022-08-03T06:25:09.160Z,101161.25
2022-08-03T06:30:09.957Z,101170.53
2022-08-03T06:35:09.501Z,101172.69
2022-08-03T06:40:06.603Z,101179.59
2022-08-03T06:45:03.746Z,101180.06
2022-08-03T06:50:14.354Z,101169.59
2022-08-03T06:55:14.353Z,101174.59
2022-08-03T07:00:12.371Z,101173.63
2022-08-03T07:05:10.300Z,101165.66
2022-08-03T07:10:07.620Z,101176.13
2022-08-03T07:15:05.769Z,101173.03
2022-08-03T07:20:04.334Z,101174.63
2022-08-03T07:25:01.164Z,101174.88
2022-08-03T07:29:58.648Z,101177.81
2022-08-03T07:35:00.503Z,101179.47
2022-08-03T07:39:58.305Z,101181.16
2022-08-03T07:44:55.213Z,101179.19
2022-08-03T07:49:52.211Z,101179.38
2022-08-03T07:54:49.612Z,101179.31
2022-08-03T07:59:59.590Z,101192.00
2022-08-03T08:05:10.519Z,101193.72
2022-08-03T08:10:09.926Z,101198.09
2022-08-03T08:15:07.886Z,101203.50
2022-08-03T08:20:05.849Z,101190.53
2022-08-03T08:25:05.399Z,101196.53
2022-08-03T08:30:11.434Z,101195.84
2022-08-03T08:35:10.422Z,101192.88
2022-08-03T08:40:07.971Z,101193.72
2022-08-03T08:45:08.155Z,101197.94
2022-08-03T08:50:10.460Z,101168.69
2022-08-03T08:55:24.847Z,101201.78
2022-08-03T09:00:22.343Z,101196.50
2022-08-03T09:05:27.823Z,101202.63
2022-08-03T09:10:36.855Z,101199.19
2022-08-03T09:15:35.033Z,101188.66
2022-08-03T09:20:32.735Z,101187.53
2022-08-03T09:25:30.765Z,101178.22
2022-08-03T09:30:33.352Z,101170.56
2022-08-03T09:35:53.003Z,101172.13
2022-08-03T09:40:50.092Z,101158.25
2022-08-03T09:45:48.166Z,101161.25
2022-08-03T09:50:58.822Z,101154.72
2022-08-03T09:56:34.516Z,101156.94
2022-08-03T10:01:32.506Z,101152.69
2022-08-03T10:06:30.204Z,101145.91
2022-08-03T10:11:29.829Z,101142.69
2022-08-03T10:16:29.490Z,101130.38
2022-08-03T10:21:27.511Z,101130.22
2022-08-03T10:26:25.372Z,101126.50
2022-08-03T10:31:23.231Z,101107.50
2022-08-03T10:36:22.978Z,101122.72
2022-08-03T10:41:20.504Z,101104.09
2022-08-03T10:46:19.665Z,101104.66
2022-08-03T10:51:16.801Z,101096.97
2022-08-03T10:56:49.830Z,101091.59
2022-08-03T11:01:58.297Z,101082.38
2022-08-03T11:07:16.000Z,101084.44
2022-08-03T11:12:21.323Z,101080.72
2022-08-03T11:17:27.473Z,101076.53
2022-08-03T11:22:24.820Z,101067.63
2022-08-03T11:27:22.972Z,101073.59
2022-08-03T11:32:34.883Z,101050.69
2022-08-03T11:37:33.459Z,101049.00
2022-08-03T11:42:42.777Z,101055.16
2022-08-03T11:47:50.846Z,101038.50
2022-08-03T11:52:50.752Z,101033.56
2022-08-03T11:59:01.688Z,101039.19
2022-08-03T12:03:07.746Z,101029.41
2022-08-03T12:08:07.042Z,101027.34
2022-08-03T12:13:56.623Z,101020.94
2022-08-03T12:18:24.492Z,101013.56
2022-08-03T12:23:22.042Z,101016.84
2022-08-03T12:28:37.413Z,101013.34
2022-08-03T12:33:49.938Z,101001.22
2022-08-03T12:38:54.697Z,101010.03
2022-08-03T12:43:51.635Z,101006.00
2022-08-03T12:49:05.852Z,100999.03
2022-08-03T12:54:05.213Z,100997.75
2022-08-03T12:59:22.064Z,100985.88
2022-08-03T13:04:25.945Z,101005.59
2022-08-03T13:09:26.386Z,100991.09
2022-08-03T13:14:23.712Z,100983.59
2022-08-03T13:19:22.606Z,100984.16
2022-08-03T13:24:19.430Z,100982.00
2022-08-03T13:29:17.082Z,100979.97
2022-08-03T13:34:13.834Z,100974.34
2022-08-03T13:39:10.460Z,100975.59
2022-08-03T13:44:28.303Z,100969.44
2022-08-03T13:49:27.043Z,100963.59
2022-08-03T13:54:24.495Z,100959.34
2022-08-03T13:59:21.230Z,100965.00
2022-08-03T14:04:22.127Z,100962.28
2022-08-03T14:09:19.952Z,100949.28
2022-08-03T14:14:16.649Z,100952.81
2022-08-03T14:19:15.287Z,100944.94
2022-08-03T14:24:12.389Z,100954.50
2022-08-03T14:29:09.829Z,100946.84
2022-08-03T14:34:06.572Z,100950.13
2022-08-03T14:39:03.425Z,100935.50
2022-08-03T14:44:01.263Z,100935.72
2022-08-03T14:50:32.848Z,100938.97
2022-08-03T14:54:16.917Z,100939.63
2022-08-03T14:59:15.265Z,100931.69
2022-08-03T15:04:12.696Z,100935.31
2022-08-03T15:09:23.607Z,100927.34
2022-08-03T15:14:22.378Z,100928.88
2022-08-03T15:20:00.217Z,100914.19
2022-08-03T15:24:44.903Z,100921.19
2022-08-03T15:30:07.257Z,100921.47
2022-08-03T15:34:59.986Z,100904.06
2022-08-03T15:39:59.009Z,100910.78
2022-08-03T15:44:57.053Z,100910.88
2022-08-03T15:49:53.934Z,100909.19
2022-08-03T15:54:51.301Z,100904.03
2022-08-03T15:59:48.176Z,100897.03
2022-08-03T16:04:44.875Z,100902.72
2022-08-03T16:09:43.113Z,100903.56
2022-08-03T16:14:51.447Z,100911.25
2022-08-03T16:19:49.743Z,100905.56
2022-08-03T16:24:46.544Z,100911.56
2022-08-03T16:29:44.047Z,100900.91
2022-08-03T16:34:41.182Z,100906.13
2022-08-03T16:39:38.001Z,100904.00
2022-08-03T16:44:36.031Z,100905.84
2022-08-03T16:49:54.245Z,100910.47
2022-08-03T16:54:52.976Z,100911.41
2022-08-03T16:59:51.773Z,100915.16
2022-08-03T17:04:49.287Z,100915.88
2022-08-03T17:09:46.509Z,100916.28
2022-08-03T17:14:43.993Z,100918.09
2022-08-03T17:19:41.215Z,100922.56
2022-08-03T17:24:45.891Z,100936.97
2022-08-03T17:29:45.535Z,100935.47
2022-08-03T17:34:43.200Z,100935.09
2022-08-03T17:44:57.639Z,100942.97
2022-08-03T17:49:54.526Z,100951.31
2022-08-03T17:55:51.527Z,100953.13
2022-08-03T18:00:35.419Z,100957.03
2022-08-03T18:06:11.163Z,100960.22
2022-08-03T18:11:03.297Z,100968.47
2022-08-03T18:16:07.774Z,100962.84
2022-08-03T18:21:09.151Z,100975.84
2022-08-03T18:26:07.718Z,100996.72
2022-08-03T18:31:10.139Z,100993.03
2022-08-03T18:36:08.607Z,100997.31
2022-08-03T18:41:12.914Z,100995.09
2022-08-03T18:46:23.161Z,101005.09
2022-08-03T18:51:28.692Z,101015.41
2022-08-03T18:56:36.846Z,101019.31
2022-08-03T19:02:00.088Z,101026.59
2022-08-03T19:06:59.055Z,101033.66
2022-08-03T19:12:13.154Z,101032.84
2022-08-03T19:17:14.579Z,101037.47
2022-08-03T19:22:19.806Z,101042.59
2022-08-03T19:27:16.917Z,101052.03
2022-08-03T19:32:16.161Z,101056.34
2022-08-03T19:37:14.617Z,101045.91
2022-08-03T19:42:20.170Z,101066.44
2022-08-03T19:47:26.481Z,101067.09
2022-08-03T19:57:46.217Z,101067.66
2022-08-03T20:02:47.145Z,101075.09
2022-08-03T20:07:48.447Z,101082.69
2022-08-03T20:12:45.955Z,101082.69
2022-08-03T20:17:57.050Z,101087.09
2022-08-03T20:22:57.611Z,101087.09
2022-08-03T20:28:06.848Z,101089.13
2022-08-03T20:33:10.031Z,101082.63
2022-08-03T20:38:08.670Z,101090.72
2022-08-03T20:43:05.451Z,101091.31
2022-08-03T20:48:03.917Z,101092.88
2022-08-03T20:53:02.738Z,101095.13
2022-08-03T20:58:02.135Z,101099.28
2022-08-03T21:03:00.134Z,101103.00
2022-08-03T21:08:05.311Z,101114.66
2022-08-03T21:13:03.180Z,101066.81
2022-08-03T21:13:22.575Z,101085.69
2022-08-03T21:18:20.229Z,101106.06
2022-08-03T21:23:40.059Z,101105.66
2022-08-03T21:28:38.039Z,101113.47
2022-08-03T21:33:35.207Z,101098.84
2022-08-03T21:38:32.210Z,101124.38
2022-08-03T21:43:28.970Z,101127.94
2022-08-03T21:48:26.861Z,101125.06
2022-08-03T21:53:25.803Z,101128.66
2022-08-03T21:58:47.669Z,101127.31
2022-08-03T22:03:53.004Z,101130.00
2022-08-03T22:08:52.151Z,101132.72
2022-08-03T22:13:48.836Z,101135.44
2022-08-03T22:18:45.956Z,101138.50
2022-08-03T22:23:46.915Z,101139.16
2022-08-03T22:28:43.649Z,101141.34
2022-08-03T22:33:40.373Z,101142.88
2022-08-03T22:38:37.597Z,101133.22
2022-08-03T22:43:35.866Z,101135.25
2022-08-03T22:48:33.972Z,101136.59
2022-08-03T22:53:31.517Z,101132.31
2022-08-03T22:58:28.245Z,101129.00
2022-08-03T23:04:00.749Z,101132.19
2022-08-03T23:08:45.887Z,101140.50
2022-08-03T23:13:46.580Z,101139.81
2022-08-03T23:18:47.044Z,101132.03
2022-08-03T23:23:44.967Z,101138.81
2022-08-03T23:28:45.092Z,101140.19
2022-08-03T23:33:44.566Z,101157.88
2022-08-03T23:38:42.153Z,101155.41
2022-08-03T23:43:51.306Z,101152.91
2022-08-03T23:48:50.114Z,101159.03
2022-08-03T23:53:51.355Z,101163.94
2022-08-03T23:58:52.969Z,101171.66
